sensor_id;sensor_type;location;lat;lon;timestamp;P1;durP1;ratioP1;P2;durP2;ratioP2
13477;SDS011;12598;62.382;17.344;2022-10-29T00:00:14;3.58;;;1.92;;
13477;SDS011;12598;62.382;17.344;2022-10-29T00:01:16;2.67;;;1.83;;
13477;SDS011;12598;62.382;17.344;2022-10-29T00:02:18;2.85;;;2.00;;
13477;SDS011;12598;62.382;17.344;2022-10-29T00:03:20;2.67;;;1.83;;
13477;SDS011;12598;62.382;17.344;2022-10-29T00:04:23;3.08;;;1.90;;
13477;SDS011;12598;62.382;17.344;2022-10-29T00:05:25;3.35;;;1.90;;
13477;SDS011;12598;62.382;17.344;2022-10-29T00:06:26;3.00;;;1.58;;
13477;SDS011;12598;62.382;17.344;2022-10-29T00:07:28;4.07;;;1.73;;
13477;SDS011;12598;62.382;17.344;2022-10-29T00:08:31;2.45;;;1.77;;
13477;SDS011;12598;62.382;17.344;2022-10-29T00:09:34;3.30;;;1.80;;
13477;SDS011;12598;62.382;17.344;2022-10-29T00:10:35;2.92;;;1.95;;
13477;SDS011;12598;62.382;17.344;2022-10-29T00:11:37;5.43;;;1.98;;
13477;SDS011;12598;62.382;17.344;2022-10-29T00:12:39;2.72;;;1.80;;
13477;SDS011;12598;62.382;17.344;2022-10-29T00:13:41;3.08;;;1.70;;
13477;SDS011;12598;62.382;17.344;2022-10-29T00:14:43;2.45;;;1.40;;
13477;SDS011;12598;62.382;17.344;2022-10-29T00:15:45;3.53;;;1.70;;
13477;SDS011;12598;62.382;17.344;2022-10-29T00:16:47;3.50;;;2.20;;
13477;SDS011;12598;62.382;17.344;2022-10-29T00:17:49;4.10;;;1.80;;
13477;SDS011;12598;62.382;17.344;2022-10-29T00:18:51;2.70;;;1.85;;
13477;SDS011;12598;62.382;17.344;2022-10-29T00:19:53;2.47;;;1.65;;
13477;SDS011;12598;62.382;17.344;2022-10-29T00:21:01;2.80;;;1.90;;
13477;SDS011;12598;62.382;17.344;2022-10-29T00:22:05;4.25;;;1.67;;
13477;SDS011;12598;62.382;17.344;2022-10-29T00:23:07;3.97;;;1.92;;
13477;SDS011;12598;62.382;17.344;2022-10-29T00:24:08;3.80;;;1.88;;
13477;SDS011;12598;62.382;17.344;2022-10-29T00:25:11;3.40;;;1.58;;
13477;SDS011;12598;62.382;17.344;2022-10-29T00:26:13;2.10;;;1.77;;
13477;SDS011;12598;62.382;17.344;2022-10-29T00:27:15;2.55;;;1.90;;
13477;SDS011;12598;62.382;17.344;2022-10-29T00:28:17;4.25;;;2.00;;
13477;SDS011;12598;62.382;17.344;2022-10-29T00:29:19;2.03;;;1.55;;
13477;SDS011;12598;62.382;17.344;2022-10-29T00:30:20;3.70;;;1.65;;
13477;SDS011;12598;62.382;17.344;2022-10-29T00:31:22;2.80;;;2.05;;
13477;SDS011;12598;62.382;17.344;2022-10-29T00:32:25;2.67;;;1.90;;
13477;SDS011;12598;62.382;17.344;2022-10-29T00:33:27;2.72;;;2.08;;
13477;SDS011;12598;62.382;17.344;2022-10-29T00:34:28;3.22;;;2.17;;
13477;SDS011;12598;62.382;17.344;2022-10-29T00:35:30;3.47;;;2.13;;
13477;SDS011;12598;62.382;17.344;2022-10-29T00:36:32;3.35;;;2.33;;
13477;SDS011;12598;62.382;17.344;2022-10-29T00:37:34;5.63;;;2.53;;
13477;SDS011;12598;62.382;17.344;2022-10-29T00:38:36;3.33;;;2.30;;
13477;SDS011;12598;62.382;17.344;2022-10-29T00:39:38;3.03;;;1.95;;
13477;SDS011;12598;62.382;17.344;2022-10-29T00:40:40;4.00;;;2.53;;
13477;SDS011;12598;62.382;17.344;2022-10-29T00:41:42;2.60;;;2.05;;
13477;SDS011;12598;62.382;17.344;2022-10-29T00:42:44;2.90;;;2.17;;
13477;SDS011;12598;62.382;17.344;2022-10-29T00:43:47;3.17;;;2.53;;
13477;SDS011;12598;62.382;17.344;2022-10-29T00:44:53;3.83;;;2.47;;
13477;SDS011;12598;62.382;17.344;2022-10-29T00:46:08;2.42;;;2.05;;
13477;SDS011;12598;62.382;17.344;2022-10-29T00:48:25;3.83;;;2.20;;
13477;SDS011;12598;62.382;17.344;2022-10-29T00:49:30;3.15;;;2.30;;
13477;SDS011;12598;62.382;17.344;2022-10-29T00:50:35;3.00;;;1.85;;
13477;SDS011;12598;62.382;17.344;2022-10-29T00:51:37;2.97;;;2.42;;
13477;SDS011;12598;62.382;17.344;2022-10-29T00:52:41;3.10;;;2.10;;
13477;SDS011;12598;62.382;17.344;2022-10-29T00:53:48;4.13;;;1.90;;
13477;SDS011;12598;62.382;17.344;2022-10-29T00:54:54;2.47;;;1.80;;
13477;SDS011;12598;62.382;17.344;2022-10-29T00:55:57;2.70;;;1.95;;
13477;SDS011;12598;62.382;17.344;2022-10-29T00:57:02;2.60;;;2.03;;
13477;SDS011;12598;62.382;17.344;2022-10-29T00:58:10;3.10;;;2.35;;
13477;SDS011;12598;62.382;17.344;2022-10-29T00:59:13;4.22;;;2.40;;
13477;SDS011;12598;62.382;17.344;2022-10-29T01:00:17;3.38;;;2.33;;
13477;SDS011;12598;62.382;17.344;2022-10-29T01:01:20;2.80;;;2.22;;
13477;SDS011;12598;62.382;17.344;2022-10-29T01:02:22;2.30;;;1.80;;
13477;SDS011;12598;62.382;17.344;2022-10-29T01:03:24;3.40;;;2.00;;
13477;SDS011;12598;62.382;17.344;2022-10-29T01:04:26;3.05;;;1.95;;
13477;SDS011;12598;62.382;17.344;2022-10-29T01:05:28;2.00;;;1.55;;
13477;SDS011;12598;62.382;17.344;2022-10-29T01:06:32;2.85;;;1.88;;
13477;SDS011;12598;62.382;17.344;2022-10-29T01:07:34;3.63;;;2.13;;
13477;SDS011;12598;62.382;17.344;2022-10-29T01:08:36;2.42;;;1.65;;
13477;SDS011;12598;62.382;17.344;2022-10-29T01:09:38;3.00;;;1.58;;
13477;SDS011;12598;62.382;17.344;2022-10-29T01:16:14;2.28;;;1.60;;
13477;SDS011;12598;62.382;17.344;2022-10-29T01:22:14;4.00;;;2.08;;
13477;SDS011;12598;62.382;17.344;2022-10-29T01:24:53;3.33;;;1.73;;
13477;SDS011;12598;62.382;17.344;2022-10-29T01:30:12;3.05;;;1.48;;
13477;SDS011;12598;62.382;17.344;2022-10-29T01:32:44;1.85;;;1.70;;
13477;SDS011;12598;62.382;17.344;2022-10-29T01:34:10;1.52;;;1.42;;
13477;SDS011;12598;62.382;17.344;2022-10-29T01:35:23;2.13;;;1.70;;
13477;SDS011;12598;62.382;17.344;2022-10-29T01:39:05;4.55;;;1.90;;
13477;SDS011;12598;62.382;17.344;2022-10-29T01:40:24;2.95;;;1.70;;
13477;SDS011;12598;62.382;17.344;2022-10-29T01:44:05;2.95;;;1.98;;
13477;SDS011;12598;62.382;17.344;2022-10-29T01:45:17;2.08;;;1.83;;
13477;SDS011;12598;62.382;17.344;2022-10-29T01:46:29;2.35;;;1.77;;
13477;SDS011;12598;62.382;17.344;2022-10-29T01:47:41;2.78;;;1.73;;
13477;SDS011;12598;62.382;17.344;2022-10-29T01:48:47;2.63;;;1.85;;
13477;SDS011;12598;62.382;17.344;2022-10-29T01:49:57;2.80;;;1.95;;
13477;SDS011;12598;62.382;17.344;2022-10-29T01:51:07;4.20;;;2.20;;
13477;SDS011;12598;62.382;17.344;2022-10-29T01:52:14;3.22;;;1.88;;
13477;SDS011;12598;62.382;17.344;2022-10-29T01:53:18;2.42;;;1.98;;
13477;SDS011;12598;62.382;17.344;2022-10-29T01:54:21;2.60;;;2.05;;
13477;SDS011;12598;62.382;17.344;2022-10-29T01:55:30;3.13;;;2.05;;
13477;SDS011;12598;62.382;17.344;2022-10-29T01:56:35;2.55;;;1.95;;
13477;SDS011;12598;62.382;17.344;2022-10-29T01:57:38;3.00;;;1.90;;
13477;SDS011;12598;62.382;17.344;2022-10-29T01:58:39;2.42;;;1.88;;
13477;SDS011;12598;62.382;17.344;2022-10-29T01:59:47;2.70;;;2.05;;
13477;SDS011;12598;62.382;17.344;2022-10-29T02:01:21;3.03;;;1.75;;
13477;SDS011;12598;62.382;17.344;2022-10-29T02:02:27;2.28;;;1.85;;
13477;SDS011;12598;62.382;17.344;2022-10-29T02:05:09;1.92;;;1.40;;
13477;SDS011;12598;62.382;17.344;2022-10-29T02:08:12;2.15;;;1.95;;
13477;SDS011;12598;62.382;17.344;2022-10-29T02:09:45;1.63;;;1.38;;
13477;SDS011;12598;62.382;17.344;2022-10-29T02:12:37;1.45;;;1.10;;
13477;SDS011;12598;62.382;17.344;2022-10-29T02:14:06;1.20;;;1.10;;
13477;SDS011;12598;62.382;17.344;2022-10-29T02:15:13;1.67;;;1.40;;
13477;SDS011;12598;62.382;17.344;2022-10-29T02:16:19;1.73;;;1.50;;
13477;SDS011;12598;62.382;17.344;2022-10-29T02:17:24;1.10;;;1.00;;
13477;SDS011;12598;62.382;17.344;2022-10-29T02:18:27;1.40;;;1.30;;
13477;SDS011;12598;62.382;17.344;2022-10-29T02:19:29;1.73;;;1.20;;
13477;SDS011;12598;62.382;17.344;2022-10-29T02:20:32;1.38;;;1.25;;
13477;SDS011;12598;62.382;17.344;2022-10-29T02:21:34;0.82;;;0.70;;
13477;SDS011;12598;62.382;17.344;2022-10-29T02:22:36;1.60;;;1.05;;
13477;SDS011;12598;62.382;17.344;2022-10-29T02:23:38;1.77;;;1.38;;
13477;SDS011;12598;62.382;17.344;2022-10-29T02:24:40;1.55;;;1.10;;
13477;SDS011;12598;62.382;17.344;2022-10-29T02:25:42;1.25;;;0.90;;
13477;SDS011;12598;62.382;17.344;2022-10-29T02:26:44;1.55;;;1.00;;
13477;SDS011;12598;62.382;17.344;2022-10-29T02:27:46;1.08;;;0.80;;
13477;SDS011;12598;62.382;17.344;2022-10-29T02:28:48;1.42;;;0.88;;
13477;SDS011;12598;62.382;17.344;2022-10-29T02:29:50;2.17;;;1.10;;
13477;SDS011;12598;62.382;17.344;2022-10-29T02:30:51;0.95;;;0.82;;
13477;SDS011;12598;62.382;17.344;2022-10-29T02:31:53;2.00;;;1.15;;
13477;SDS011;12598;62.382;17.344;2022-10-29T02:32:55;1.98;;;1.00;;
13477;SDS011;12598;62.382;17.344;2022-10-29T02:33:57;1.10;;;1.00;;
13477;SDS011;12598;62.382;17.344;2022-10-29T02:34:59;1.77;;;1.13;;
13477;SDS011;12598;62.382;17.344;2022-10-29T02:36:02;2.85;;;1.00;;
13477;SDS011;12598;62.382;17.344;2022-10-29T02:37:04;1.40;;;1.00;;
13477;SDS011;12598;62.382;17.344;2022-10-29T02:38:06;1.10;;;0.90;;
13477;SDS011;12598;62.382;17.344;2022-10-29T02:39:07;1.35;;;0.93;;
13477;SDS011;12598;62.382;17.344;2022-10-29T02:40:09;1.77;;;0.98;;
13477;SDS011;12598;62.382;17.344;2022-10-29T02:41:12;1.70;;;0.90;;
13477;SDS011;12598;62.382;17.344;2022-10-29T02:42:13;1.20;;;0.98;;
13477;SDS011;12598;62.382;17.344;2022-10-29T02:43:15;1.80;;;1.05;;
13477;SDS011;12598;62.382;17.344;2022-10-29T02:44:17;2.03;;;1.15;;
13477;SDS011;12598;62.382;17.344;2022-10-29T02:45:19;1.00;;;0.90;;
13477;SDS011;12598;62.382;17.344;2022-10-29T02:46:21;1.55;;;1.20;;
13477;SDS011;12598;62.382;17.344;2022-10-29T02:47:24;2.10;;;1.17;;
13477;SDS011;12598;62.382;17.344;2022-10-29T02:48:26;1.70;;;0.90;;
13477;SDS011;12598;62.382;17.344;2022-10-29T02:49:28;1.92;;;0.85;;
13477;SDS011;12598;62.382;17.344;2022-10-29T02:50:30;1.30;;;0.90;;
13477;SDS011;12598;62.382;17.344;2022-10-29T02:51:32;1.20;;;1.00;;
13477;SDS011;12598;62.382;17.344;2022-10-29T02:52:33;3.40;;;1.00;;
13477;SDS011;12598;62.382;17.344;2022-10-29T02:53:35;2.35;;;1.00;;
13477;SDS011;12598;62.382;17.344;2022-10-29T02:54:38;2.17;;;1.00;;
13477;SDS011;12598;62.382;17.344;2022-10-29T02:55:40;1.13;;;0.90;;
13477;SDS011;12598;62.382;17.344;2022-10-29T02:56:42;1.75;;;0.90;;
13477;SDS011;12598;62.382;17.344;2022-10-29T02:57:44;0.85;;;0.77;;
13477;SDS011;12598;62.382;17.344;2022-10-29T02:58:46;2.88;;;0.75;;
13477;SDS011;12598;62.382;17.344;2022-10-29T02:59:48;3.03;;;0.80;;
13477;SDS011;12598;62.382;17.344;2022-10-29T03:00:50;3.80;;;0.90;;
13477;SDS011;12598;62.382;17.344;2022-10-29T03:01:52;3.45;;;1.08;;
13477;SDS011;12598;62.382;17.344;2022-10-29T03:02:55;1.98;;;1.00;;
13477;SDS011;12598;62.382;17.344;2022-10-29T03:03:57;1.08;;;0.90;;
13477;SDS011;12598;62.382;17.344;2022-10-29T03:04:59;1.77;;;1.10;;
13477;SDS011;12598;62.382;17.344;2022-10-29T03:06:01;2.15;;;1.05;;
13477;SDS011;12598;62.382;17.344;2022-10-29T03:07:02;1.08;;;0.98;;
13477;SDS011;12598;62.382;17.344;2022-10-29T03:08:04;1.17;;;0.80;;
13477;SDS011;12598;62.382;17.344;2022-10-29T03:09:06;1.13;;;0.85;;
13477;SDS011;12598;62.382;17.344;2022-10-29T03:10:08;1.83;;;1.00;;
13477;SDS011;12598;62.382;17.344;2022-10-29T03:11:10;1.50;;;1.10;;
13477;SDS011;12598;62.382;17.344;2022-10-29T03:12:12;1.73;;;1.13;;
13477;SDS011;12598;62.382;17.344;2022-10-29T03:13:14;1.90;;;0.90;;
13477;SDS011;12598;62.382;17.344;2022-10-29T03:14:16;2.05;;;1.23;;
13477;SDS011;12598;62.382;17.344;2022-10-29T03:15:18;3.08;;;1.05;;
13477;SDS011;12598;62.382;17.344;2022-10-29T03:16:19;1.17;;;0.80;;
13477;SDS011;12598;62.382;17.344;2022-10-29T03:17:21;1.17;;;0.90;;
13477;SDS011;12598;62.382;17.344;2022-10-29T03:18:23;1.77;;;1.10;;
13477;SDS011;12598;62.382;17.344;2022-10-29T03:19:25;1.48;;;0.95;;
13477;SDS011;12598;62.382;17.344;2022-10-29T03:20:27;2.30;;;1.25;;
13477;SDS011;12598;62.382;17.344;2022-10-29T03:21:28;1.35;;;1.10;;
13477;SDS011;12598;62.382;17.344;2022-10-29T03:22:30;2.90;;;1.00;;
13477;SDS011;12598;62.382;17.344;2022-10-29T03:23:32;5.15;;;1.20;;
13477;SDS011;12598;62.382;17.344;2022-10-29T03:24:34;1.98;;;1.00;;
13477;SDS011;12598;62.382;17.344;2022-10-29T03:25:35;2.88;;;1.00;;
13477;SDS011;12598;62.382;17.344;2022-10-29T03:26:38;1.35;;;0.90;;
13477;SDS011;12598;62.382;17.344;2022-10-29T03:27:40;1.73;;;1.13;;
13477;SDS011;12598;62.382;17.344;2022-10-29T03:28:43;1.50;;;1.10;;
13477;SDS011;12598;62.382;17.344;2022-10-29T03:29:49;1.67;;;0.95;;
13477;SDS011;12598;62.382;17.344;2022-10-29T03:30:51;1.65;;;1.02;;
13477;SDS011;12598;62.382;17.344;2022-10-29T03:31:53;1.55;;;1.00;;
13477;SDS011;12598;62.382;17.344;2022-10-29T03:32:55;2.13;;;1.10;;
13477;SDS011;12598;62.382;17.344;2022-10-29T03:33:57;2.45;;;1.20;;
13477;SDS011;12598;62.382;17.344;2022-10-29T03:34:59;1.50;;;1.20;;
13477;SDS011;12598;62.382;17.344;2022-10-29T03:36:01;1.15;;;0.98;;
13477;SDS011;12598;62.382;17.344;2022-10-29T03:37:08;0.90;;;0.80;;
13477;SDS011;12598;62.382;17.344;2022-10-29T03:38:10;2.13;;;1.23;;
13477;SDS011;12598;62.382;17.344;2022-10-29T03:39:12;1.00;;;0.90;;
13477;SDS011;12598;62.382;17.344;2022-10-29T03:40:14;1.33;;;0.90;;
13477;SDS011;12598;62.382;17.344;2022-10-29T03:41:15;1.88;;;1.00;;
13477;SDS011;12598;62.382;17.344;2022-10-29T03:42:17;1.92;;;0.85;;
13477;SDS011;12598;62.382;17.344;2022-10-29T03:43:19;1.17;;;1.00;;
13477;SDS011;12598;62.382;17.344;2022-10-29T03:44:22;2.22;;;0.80;;
13477;SDS011;12598;62.382;17.344;2022-10-29T03:45:24;1.85;;;0.95;;
13477;SDS011;12598;62.382;17.344;2022-10-29T03:46:26;1.10;;;0.90;;
13477;SDS011;12598;62.382;17.344;2022-10-29T03:47:28;2.58;;;0.80;;
13477;SDS011;12598;62.382;17.344;2022-10-29T03:48:30;1.85;;;0.88;;
13477;SDS011;12598;62.382;17.344;2022-10-29T03:49:32;2.58;;;1.02;;
13477;SDS011;12598;62.382;17.344;2022-10-29T03:50:34;1.92;;;0.98;;
13477;SDS011;12598;62.382;17.344;2022-10-29T03:51:35;1.20;;;0.90;;
13477;SDS011;12598;62.382;17.344;2022-10-29T03:52:37;3.17;;;0.85;;
13477;SDS011;12598;62.382;17.344;2022-10-29T03:53:39;1.88;;;1.10;;
13477;SDS011;12598;62.382;17.344;2022-10-29T03:54:41;1.02;;;0.80;;
13477;SDS011;12598;62.382;17.344;2022-10-29T03:55:42;1.27;;;0.60;;
13477;SDS011;12598;62.382;17.344;2022-10-29T03:56:44;1.13;;;0.80;;
13477;SDS011;12598;62.382;17.344;2022-10-29T03:57:46;1.15;;;0.98;;
13477;SDS011;12598;62.382;17.344;2022-10-29T03:58:48;1.55;;;0.80;;
13477;SDS011;12598;62.382;17.344;2022-10-29T03:59:50;1.23;;;0.80;;
13477;SDS011;12598;62.382;17.344;2022-10-29T04:00:57;0.98;;;0.68;;
13477;SDS011;12598;62.382;17.344;2022-10-29T04:02:01;1.23;;;0.85;;
13477;SDS011;12598;62.382;17.344;2022-10-29T04:03:03;0.88;;;0.77;;
13477;SDS011;12598;62.382;17.344;2022-10-29T04:04:05;1.73;;;0.90;;
13477;SDS011;12598;62.382;17.344;2022-10-29T04:05:06;1.13;;;0.68;;
13477;SDS011;12598;62.382;17.344;2022-10-29T04:06:10;1.52;;;0.98;;
13477;SDS011;12598;62.382;17.344;2022-10-29T04:07:13;1.02;;;0.82;;
13477;SDS011;12598;62.382;17.344;2022-10-29T04:08:15;1.60;;;0.80;;
13477;SDS011;12598;62.382;17.344;2022-10-29T04:09:17;2.42;;;0.90;;
13477;SDS011;12598;62.382;17.344;2022-10-29T04:10:19;1.02;;;0.73;;
13477;SDS011;12598;62.382;17.344;2022-10-29T04:11:20;1.80;;;0.70;;
13477;SDS011;12598;62.382;17.344;2022-10-29T04:12:22;2.58;;;0.60;;
13477;SDS011;12598;62.382;17.344;2022-10-29T04:13:24;1.33;;;0.70;;
13477;SDS011;12598;62.382;17.344;2022-10-29T04:14:26;1.55;;;0.88;;
13477;SDS011;12598;62.382;17.344;2022-10-29T04:15:28;1.85;;;0.57;;
13477;SDS011;12598;62.382;17.344;2022-10-29T04:16:30;1.27;;;0.80;;
13477;SDS011;12598;62.382;17.344;2022-10-29T04:17:32;1.13;;;0.90;;
13477;SDS011;12598;62.382;17.344;2022-10-29T04:18:34;1.48;;;0.80;;
13477;SDS011;12598;62.382;17.344;2022-10-29T04:19:36;1.23;;;0.50;;
13477;SDS011;12598;62.382;17.344;2022-10-29T04:20:38;1.67;;;0.80;;
13477;SDS011;12598;62.382;17.344;2022-10-29T04:22:01;0.85;;;0.63;;
13477;SDS011;12598;62.382;17.344;2022-10-29T04:23:23;0.88;;;0.60;;
13477;SDS011;12598;62.382;17.344;2022-10-29T04:24:45;1.42;;;0.80;;
13477;SDS011;12598;62.382;17.344;2022-10-29T04:26:06;0.70;;;0.60;;
13477;SDS011;12598;62.382;17.344;2022-10-29T04:27:28;1.50;;;0.60;;
13477;SDS011;12598;62.382;17.344;2022-10-29T04:28:52;0.88;;;0.60;;
13477;SDS011;12598;62.382;17.344;2022-10-29T04:29:54;0.57;;;0.50;;
13477;SDS011;12598;62.382;17.344;2022-10-29T04:30:55;2.22;;;0.73;;
13477;SDS011;12598;62.382;17.344;2022-10-29T04:31:57;0.88;;;0.60;;
13477;SDS011;12598;62.382;17.344;2022-10-29T04:32:59;1.00;;;0.70;;
13477;SDS011;12598;62.382;17.344;2022-10-29T04:34:01;0.65;;;0.60;;
13477;SDS011;12598;62.382;17.344;2022-10-29T04:35:03;0.70;;;0.50;;
13477;SDS011;12598;62.382;17.344;2022-10-29T04:36:05;0.85;;;0.40;;
13477;SDS011;12598;62.382;17.344;2022-10-29T04:37:07;0.70;;;0.50;;
13477;SDS011;12598;62.382;17.344;2022-10-29T04:38:09;0.85;;;0.50;;
13477;SDS011;12598;62.382;17.344;2022-10-29T04:39:12;0.40;;;0.40;;
13477;SDS011;12598;62.382;17.344;2022-10-29T04:40:17;0.90;;;0.47;;
13477;SDS011;12598;62.382;17.344;2022-10-29T04:41:19;0.93;;;0.50;;
13477;SDS011;12598;62.382;17.344;2022-10-29T04:42:21;1.17;;;0.73;;
13477;SDS011;12598;62.382;17.344;2022-10-29T04:43:22;0.68;;;0.40;;
13477;SDS011;12598;62.382;17.344;2022-10-29T04:44:24;0.80;;;0.50;;
13477;SDS011;12598;62.382;17.344;2022-10-29T04:45:26;0.52;;;0.30;;
13477;SDS011;12598;62.382;17.344;2022-10-29T04:46:28;1.65;;;0.63;;
13477;SDS011;12598;62.382;17.344;2022-10-29T04:47:30;0.55;;;0.45;;
13477;SDS011;12598;62.382;17.344;2022-10-29T04:48:32;0.75;;;0.50;;
13477;SDS011;12598;62.382;17.344;2022-10-29T04:49:33;1.23;;;0.32;;
13477;SDS011;12598;62.382;17.344;2022-10-29T04:50:36;0.68;;;0.50;;
13477;SDS011;12598;62.382;17.344;2022-10-29T04:51:38;0.63;;;0.40;;
13477;SDS011;12598;62.382;17.344;2022-10-29T04:52:40;0.85;;;0.60;;
13477;SDS011;12598;62.382;17.344;2022-10-29T04:53:42;0.70;;;0.40;;
13477;SDS011;12598;62.382;17.344;2022-10-29T04:54:44;0.43;;;0.30;;
13477;SDS011;12598;62.382;17.344;2022-10-29T04:55:46;0.38;;;0.30;;
13477;SDS011;12598;62.382;17.344;2022-10-29T04:56:48;0.50;;;0.50;;
13477;SDS011;12598;62.382;17.344;2022-10-29T04:57:50;0.65;;;0.50;;
13477;SDS011;12598;62.382;17.344;2022-10-29T04:58:51;0.68;;;0.60;;
13477;SDS011;12598;62.382;17.344;2022-10-29T04:59:53;2.10;;;0.70;;
13477;SDS011;12598;62.382;17.344;2022-10-29T05:01:02;0.43;;;0.40;;
13477;SDS011;12598;62.382;17.344;2022-10-29T05:02:06;0.40;;;0.40;;
13477;SDS011;12598;62.382;17.344;2022-10-29T05:03:08;0.70;;;0.60;;
13477;SDS011;12598;62.382;17.344;2022-10-29T05:04:10;0.47;;;0.40;;
13477;SDS011;12598;62.382;17.344;2022-10-29T05:05:12;0.70;;;0.40;;
13477;SDS011;12598;62.382;17.344;2022-10-29T05:06:14;0.47;;;0.40;;
13477;SDS011;12598;62.382;17.344;2022-10-29T05:07:15;0.47;;;0.47;;
13477;SDS011;12598;62.382;17.344;2022-10-29T05:08:17;0.90;;;0.35;;
13477;SDS011;12598;62.382;17.344;2022-10-29T05:09:19;0.63;;;0.35;;
13477;SDS011;12598;62.382;17.344;2022-10-29T05:10:21;0.85;;;0.50;;
13477;SDS011;12598;62.382;17.344;2022-10-29T05:11:23;1.23;;;0.70;;
13477;SDS011;12598;62.382;17.344;2022-10-29T05:12:24;0.32;;;0.30;;
13477;SDS011;12598;62.382;17.344;2022-10-29T05:13:26;0.50;;;0.38;;
13477;SDS011;12598;62.382;17.344;2022-10-29T05:14:28;0.63;;;0.30;;
13477;SDS011;12598;62.382;17.344;2022-10-29T05:15:30;1.30;;;0.50;;
13477;SDS011;12598;62.382;17.344;2022-10-29T05:16:32;1.75;;;0.40;;
13477;SDS011;12598;62.382;17.344;2022-10-29T05:17:36;1.42;;;0.60;;
13477;SDS011;12598;62.382;17.344;2022-10-29T05:18:41;0.50;;;0.50;;
13477;SDS011;12598;62.382;17.344;2022-10-29T05:19:43;0.50;;;0.40;;
13477;SDS011;12598;62.382;17.344;2022-10-29T05:20:45;0.82;;;0.40;;
13477;SDS011;12598;62.382;17.344;2022-10-29T05:21:47;0.40;;;0.32;;
13477;SDS011;12598;62.382;17.344;2022-10-29T05:22:49;0.68;;;0.40;;
13477;SDS011;12598;62.382;17.344;2022-10-29T05:23:51;0.65;;;0.45;;
13477;SDS011;12598;62.382;17.344;2022-10-29T05:24:52;0.95;;;0.43;;
13477;SDS011;12598;62.382;17.344;2022-10-29T05:25:54;1.85;;;0.73;;
13477;SDS011;12598;62.382;17.344;2022-10-29T05:26:56;0.60;;;0.50;;
13477;SDS011;12598;62.382;17.344;2022-10-29T05:28:05;0.40;;;0.30;;
13477;SDS011;12598;62.382;17.344;2022-10-29T05:29:14;0.70;;;0.30;;
13477;SDS011;12598;62.382;17.344;2022-10-29T05:30:15;0.22;;;0.20;;
13477;SDS011;12598;62.382;17.344;2022-10-29T05:31:17;0.75;;;0.40;;
13477;SDS011;12598;62.382;17.344;2022-10-29T05:32:19;0.32;;;0.32;;
13477;SDS011;12598;62.382;17.344;2022-10-29T05:33:22;0.65;;;0.40;;
13477;SDS011;12598;62.382;17.344;2022-10-29T05:34:24;0.38;;;0.25;;
13477;SDS011;12598;62.382;17.344;2022-10-29T05:35:26;1.65;;;0.47;;
13477;SDS011;12598;62.382;17.344;2022-10-29T05:36:28;0.32;;;0.30;;
13477;SDS011;12598;62.382;17.344;2022-10-29T05:37:30;0.60;;;0.30;;
13477;SDS011;12598;62.382;17.344;2022-10-29T05:38:32;0.20;;;0.20;;
13477;SDS011;12598;62.382;17.344;2022-10-29T05:39:33;0.50;;;0.20;;
13477;SDS011;12598;62.382;17.344;2022-10-29T05:40:35;0.38;;;0.30;;
13477;SDS011;12598;62.382;17.344;2022-10-29T05:41:37;0.25;;;0.20;;
13477;SDS011;12598;62.382;17.344;2022-10-29T05:42:39;1.27;;;0.40;;
13477;SDS011;12598;62.382;17.344;2022-10-29T05:43:48;0.50;;;0.32;;
13477;SDS011;12598;62.382;17.344;2022-10-29T05:44:50;0.20;;;0.20;;
13477;SDS011;12598;62.382;17.344;2022-10-29T05:45:52;0.22;;;0.22;;
13477;SDS011;12598;62.382;17.344;2022-10-29T05:46:54;0.20;;;0.15;;
13477;SDS011;12598;62.382;17.344;2022-10-29T05:47:56;0.30;;;0.20;;
13477;SDS011;12598;62.382;17.344;2022-10-29T05:49:00;1.05;;;0.25;;
13477;SDS011;12598;62.382;17.344;2022-10-29T05:50:02;0.75;;;0.20;;
13477;SDS011;12598;62.382;17.344;2022-10-29T05:51:04;0.32;;;0.10;;
13477;SDS011;12598;62.382;17.344;2022-10-29T05:52:06;0.10;;;0.10;;
13477;SDS011;12598;62.382;17.344;2022-10-29T05:53:11;0.45;;;0.20;;
13477;SDS011;12598;62.382;17.344;2022-10-29T05:54:14;1.48;;;0.30;;
13477;SDS011;12598;62.382;17.344;2022-10-29T05:55:16;0.20;;;0.10;;
13477;SDS011;12598;62.382;17.344;2022-10-29T05:56:18;0.40;;;0.22;;
13477;SDS011;12598;62.382;17.344;2022-10-29T05:57:19;0.50;;;0.20;;
13477;SDS011;12598;62.382;17.344;2022-10-29T05:58:21;0.10;;;0.10;;
13477;SDS011;12598;62.382;17.344;2022-10-29T05:59:23;0.30;;;0.25;;
13477;SDS011;12598;62.382;17.344;2022-10-29T06:00:31;0.40;;;0.30;;
13477;SDS011;12598;62.382;17.344;2022-10-29T06:01:34;0.55;;;0.22;;
13477;SDS011;12598;62.382;17.344;2022-10-29T06:02:36;0.28;;;0.15;;
13477;SDS011;12598;62.382;17.344;2022-10-29T06:03:38;0.20;;;0.20;;
13477;SDS011;12598;62.382;17.344;2022-10-29T06:04:40;1.02;;;0.22;;
13477;SDS011;12598;62.382;17.344;2022-10-29T06:05:41;0.10;;;0.10;;
13477;SDS011;12598;62.382;17.344;2022-10-29T06:06:43;0.10;;;0.10;;
13477;SDS011;12598;62.382;17.344;2022-10-29T06:07:45;0.30;;;0.20;;
13477;SDS011;12598;62.382;17.344;2022-10-29T06:08:47;0.40;;;0.20;;
13477;SDS011;12598;62.382;17.344;2022-10-29T06:09:49;0.30;;;0.10;;
13477;SDS011;12598;62.382;17.344;2022-10-29T06:10:50;0.20;;;0.20;;
13477;SDS011;12598;62.382;17.344;2022-10-29T06:11:53;1.83;;;0.10;;
13477;SDS011;12598;62.382;17.344;2022-10-29T06:12:55;0.20;;;0.10;;
13477;SDS011;12598;62.382;17.344;2022-10-29T06:13:57;0.13;;;0.13;;
13477;SDS011;12598;62.382;17.344;2022-10-29T06:14:59;0.20;;;0.20;;
13477;SDS011;12598;62.382;17.344;2022-10-29T06:16:01;0.85;;;0.10;;
13477;SDS011;12598;62.382;17.344;2022-10-29T06:17:02;0.40;;;0.10;;
13477;SDS011;12598;62.382;17.344;2022-10-29T06:18:04;0.82;;;0.17;;
13477;SDS011;12598;62.382;17.344;2022-10-29T06:19:06;0.20;;;0.10;;
13477;SDS011;12598;62.382;17.344;2022-10-29T06:20:08;0.22;;;0.10;;
13477;SDS011;12598;62.382;17.344;2022-10-29T06:21:12;0.98;;;0.20;;
13477;SDS011;12598;62.382;17.344;2022-10-29T06:22:14;0.22;;;0.10;;
13477;SDS011;12598;62.382;17.344;2022-10-29T06:23:15;0.22;;;0.20;;
13477;SDS011;12598;62.382;17.344;2022-10-29T06:24:17;0.10;;;0.05;;
13477;SDS011;12598;62.382;17.344;2022-10-29T06:25:19;0.25;;;0.00;;
13477;SDS011;12598;62.382;17.344;2022-10-29T06:26:21;0.28;;;0.10;;
13477;SDS011;12598;62.382;17.344;2022-10-29T06:27:23;0.30;;;0.10;;
13477;SDS011;12598;62.382;17.344;2022-10-29T06:28:26;0.22;;;0.20;;
13477;SDS011;12598;62.382;17.344;2022-10-29T06:29:35;0.10;;;0.10;;
13477;SDS011;12598;62.382;17.344;2022-10-29T06:30:37;0.10;;;0.08;;
13477;SDS011;12598;62.382;17.344;2022-10-29T06:31:38;0.52;;;0.20;;
13477;SDS011;12598;62.382;17.344;2022-10-29T06:32:40;0.43;;;0.20;;
13477;SDS011;12598;62.382;17.344;2022-10-29T06:33:47;0.10;;;0.10;;
13477;SDS011;12598;62.382;17.344;2022-10-29T06:34:49;0.10;;;0.05;;
13477;SDS011;12598;62.382;17.344;2022-10-29T06:35:51;0.90;;;0.25;;
13477;SDS011;12598;62.382;17.344;2022-10-29T06:36:54;0.35;;;0.20;;
13477;SDS011;12598;62.382;17.344;2022-10-29T06:37:55;0.70;;;0.20;;
13477;SDS011;12598;62.382;17.344;2022-10-29T06:38:58;0.20;;;0.10;;
13477;SDS011;12598;62.382;17.344;2022-10-29T06:40:00;0.40;;;0.20;;
13477;SDS011;12598;62.382;17.344;2022-10-29T06:41:01;0.35;;;0.28;;
13477;SDS011;12598;62.382;17.344;2022-10-29T06:42:03;0.20;;;0.17;;
13477;SDS011;12598;62.382;17.344;2022-10-29T06:43:06;0.25;;;0.20;;
13477;SDS011;12598;62.382;17.344;2022-10-29T06:44:10;0.30;;;0.20;;
13477;SDS011;12598;62.382;17.344;2022-10-29T06:45:12;0.40;;;0.30;;